Time;durP1;ratioP1;P1;durP2;ratioP2;P2;SDS_P1;SDS_P2;PMS_P1;PMS_P2;Temp;Humidity;BMP_temperature;BMP_pressure;BME280_temperature;BME280_humidity;BME280_pressure;Samples;Min_cycle;Max_cycle;Signal;HPM_P1;HPM_P2
2021/03/09 00:01:50;;;;;;;7.32;4.63;;;-0.20;1.00;;;;;;4930016;28;20300;-79
2021/03/09 00:04:18;;;;;;;6.45;3.92;;;-0.20;1.00;;;;;;4921508;28;20321;-78
2021/03/09 00:06:45;;;;;;;4.85;3.70;;;-0.20;1.00;;;;;;4929530;28;20376;-76
2021/03/09 00:09:11;;;;;;;5.85;4.00;;;-0.30;1.00;;;;;;4928938;28;20279;-78
2021/03/09 00:11:37;;;;;;;5.63;3.70;;;-0.30;1.00;;;;;;4929270;28;20272;-78
2021/03/09 00:14:03;;;;;;;10.80;4.03;;;-0.20;1.00;;;;;;4934581;28;20226;-78
2021/03/09 00:16:33;;;;;;;4.85;3.72;;;-0.30;1.00;;;;;;4929971;29;20301;-78
2021/03/09 00:18:59;;;;;;;4.55;4.15;;;-0.30;1.00;;;;;;4934937;28;21041;-78
2021/03/09 00:21:25;;;;;;;5.20;4.10;;;-0.30;1.00;;;;;;4913175;28;20254;-78
2021/03/09 00:23:53;;;;;;;5.68;3.65;;;-0.30;1.00;;;;;;4927743;28;20229;-77
2021/03/09 00:26:19;;;;;;;4.75;3.80;;;-0.30;1.00;;;;;;4942819;28;20236;-77
2021/03/09 00:28:45;;;;;;;6.18;4.20;;;-0.30;1.00;;;;;;4949404;28;20288;-77
2021/03/09 00:31:11;;;;;;;5.55;3.35;;;-0.30;1.00;;;;;;4942769;28;20316;-77
2021/03/09 00:33:37;;;;;;;6.28;4.07;;;-0.20;1.00;;;;;;4931206;28;20289;-77
2021/03/09 00:36:04;;;;;;;5.35;4.00;;;-0.20;1.00;;;;;;4930955;28;20229;-78
2021/03/09 00:38:30;;;;;;;5.57;4.57;;;-0.30;1.00;;;;;;4932195;28;20329;-78
2021/03/09 00:40:57;;;;;;;6.40;4.30;;;-0.30;1.00;;;;;;4933828;28;20277;-78
2021/03/09 00:43:24;;;;;;;9.18;5.10;;;-0.30;1.00;;;;;;4918758;28;20269;-77
2021/03/09 00:45:50;;;;;;;8.15;3.70;;;-0.30;1.00;;;;;;4931610;28;20381;-77
2021/03/09 00:48:17;;;;;;;8.43;3.80;;;-0.40;1.00;;;;;;4932743;28;20349;-77
2021/03/09 00:50:44;;;;;;;5.40;3.58;;;-0.40;1.00;;;;;;4935608;28;20249;-77
2021/03/09 00:53:10;;;;;;;6.72;4.20;;;-0.40;1.00;;;;;;4938040;28;21090;-78
2021/03/09 00:55:36;;;;;;;4.63;3.55;;;-0.40;1.00;;;;;;4933327;28;20237;-78
2021/03/09 00:58:04;;;;;;;4.85;4.20;;;-0.50;1.00;;;;;;4930484;28;20256;-78
2021/03/09 01:00:31;;;;;;;6.65;4.20;;;-0.40;1.00;;;;;;4929787;28;20229;-77
2021/03/09 01:02:57;;;;;;;5.78;3.85;;;-0.40;1.00;;;;;;4922724;28;20228;-78
2021/03/09 01:05:24;;;;;;;9.32;4.82;;;-0.50;1.00;;;;;;4933444;28;20242;-78
2021/03/09 01:07:51;;;;;;;4.40;3.67;;;-0.50;1.00;;;;;;4934064;28;20232;-77
2021/03/09 01:10:19;;;;;;;6.72;3.75;;;-0.50;1.00;;;;;;4938575;28;21073;-78
2021/03/09 01:12:45;;;;;;;5.80;3.85;;;-0.50;1.00;;;;;;4938839;28;20225;-78
2021/03/09 01:15:13;;;;;;;6.53;4.70;;;-0.40;1.00;;;;;;4940527;28;20769;-78
2021/03/09 01:17:39;;;;;;;5.22;4.20;;;-0.40;1.00;;;;;;4937569;28;20745;-78
2021/03/09 01:20:08;;;;;;;4.78;4.28;;;-0.40;1.00;;;;;;4939438;28;20309;-77
2021/03/09 01:22:34;;;;;;;5.55;4.70;;;-0.40;1.00;;;;;;4933967;28;20474;-76
2021/03/09 01:25:00;;;;;;;10.50;4.10;;;-0.40;1.00;;;;;;4935565;28;20238;-76
2021/03/09 01:27:26;;;;;;;8.20;4.80;;;-0.40;1.00;;;;;;4936078;28;20843;-77
2021/03/09 01:29:52;;;;;;;10.45;4.40;;;-0.50;1.00;;;;;;4923774;28;20729;-78
2021/03/09 01:32:20;;;;;;;6.50;3.75;;;-0.50;1.00;;;;;;4930752;28;20686;-77
2021/03/09 01:34:46;;;;;;;6.40;5.15;;;-0.40;1.00;;;;;;4921594;28;20227;-77
2021/03/09 01:37:12;;;;;;;6.38;4.00;;;-0.40;1.00;;;;;;4923811;28;20282;-77
2021/03/09 01:39:38;;;;;;;6.75;4.03;;;-0.40;1.00;;;;;;4933720;28;20751;-77
2021/03/09 01:42:05;;;;;;;5.82;4.15;;;-0.40;1.00;;;;;;4924343;28;20431;-77
2021/03/09 01:44:32;;;;;;;5.80;4.30;;;-0.40;1.00;;;;;;4903658;28;20233;-76
2021/03/09 01:47:01;;;;;;;4.90;4.40;;;-0.40;1.00;;;;;;4920690;28;20233;-77
2021/03/09 01:49:30;;;;;;;5.85;3.58;;;-0.40;1.00;;;;;;4926436;28;20237;-77
2021/03/09 01:51:56;;;;;;;7.75;5.60;;;-0.40;1.00;;;;;;4926951;28;20313;-78
2021/03/09 01:54:22;;;;;;;5.68;4.10;;;-0.40;1.00;;;;;;4922480;28;20238;-77
2021/03/09 01:56:49;;;;;;;5.70;4.35;;;-0.50;1.00;;;;;;4926363;28;20222;-78
2021/03/09 01:59:17;;;;;;;6.63;4.57;;;-0.50;1.00;;;;;;4936312;28;20316;-77
2021/03/09 02:01:44;;;;;;;7.72;5.00;;;-0.50;1.00;;;;;;4936458;28;20327;-77
2021/03/09 02:04:11;;;;;;;11.02;5.20;;;-0.50;1.00;;;;;;4923600;28;20261;-78
2021/03/09 02:06:39;;;;;;;7.25;4.88;;;-0.60;1.00;;;;;;4923901;28;20280;-77
2021/03/09 02:09:07;;;;;;;7.15;5.10;;;-0.70;1.00;;;;;;4917326;28;20233;-77
2021/03/09 02:11:42;;;;;;;6.32;4.45;;;-0.70;1.00;;;;;;4920878;28;20991;-77
2021/03/09 02:14:16;;;;;;;5.75;4.65;;;-0.70;1.00;;;;;;4921047;28;20305;-77
2021/03/09 02:16:47;;;;;;;6.28;4.50;;;-0.70;1.00;;;;;;4973191;23;20307;-77
2021/03/09 02:20:00;;;;;;;8.70;4.35;;;-0.70;1.00;;;;;;4947126;28;20236;-77
2021/03/09 02:22:48;;;;;;;4.97;4.30;;;-0.80;1.00;;;;;;4960551;28;20221;-78
2021/03/09 02:25:33;;;;;;;6.68;4.30;;;-0.80;1.00;;;;;;4957458;28;20323;-76
2021/03/09 02:28:11;;;;;;;5.47;4.75;;;-0.80;1.00;;;;;;4943890;28;20233;-77
2021/03/09 02:30:40;;;;;;;5.70;4.15;;;-0.90;1.00;;;;;;4941029;28;20209;-76
2021/03/09 02:33:11;;;;;;;5.55;4.85;;;-0.90;1.00;;;;;;4943778;28;20217;-76
2021/03/09 02:35:40;;;;;;;6.53;4.55;;;-0.90;1.00;;;;;;4937346;28;20226;-76
2021/03/09 02:38:08;;;;;;;10.70;5.57;;;-0.90;1.00;;;;;;4942326;28;20709;-78
2021/03/09 02:40:36;;;;;;;7.82;5.30;;;-1.00;1.00;;;;;;4945811;28;20229;-78
2021/03/09 02:43:06;;;;;;;5.57;4.55;;;-1.00;1.00;;;;;;4949523;28;20299;-77
2021/03/09 02:45:32;;;;;;;7.43;4.50;;;-1.00;1.00;;;;;;4948744;28;20362;-76
2021/03/09 02:48:00;;;;;;;6.40;4.43;;;-1.00;1.00;;;;;;4946640;28;21034;-77
2021/03/09 02:50:28;;;;;;;9.75;4.38;;;-1.00;1.00;;;;;;4952487;28;20232;-76
2021/03/09 02:53:00;;;;;;;7.93;5.68;;;-1.00;1.00;;;;;;4948108;28;20723;-76
2021/03/09 02:55:29;;;;;;;5.03;4.07;;;-1.00;1.00;;;;;;4941914;28;20276;-76
2021/03/09 02:57:56;;;;;;;5.45;4.10;;;-1.00;1.00;;;;;;4938268;28;20234;-76
2021/03/09 03:00:23;;;;;;;9.20;4.50;;;-1.10;1.00;;;;;;4943079;28;20800;-76
2021/03/09 03:02:50;;;;;;;8.45;7.47;;;-1.10;1.00;;;;;;4940293;28;20316;-76
2021/03/09 03:05:19;;;;;;;8.25;4.68;;;-1.10;1.00;;;;;;4945914;28;21093;-76
2021/03/09 03:07:45;;;;;;;5.85;4.50;;;-1.10;1.00;;;;;;4933956;28;20935;-76
2021/03/09 03:10:15;;;;;;;8.80;5.25;;;-1.10;1.00;;;;;;4945198;28;20652;-76
2021/03/09 03:12:42;;;;;;;9.23;5.13;;;-1.10;1.00;;;;;;4942161;28;20229;-77
2021/03/09 03:15:12;;;;;;;8.30;4.68;;;-1.10;1.00;;;;;;4925997;28;20315;-78
2021/03/09 03:17:41;;;;;;;7.90;4.47;;;-1.10;1.00;;;;;;4942983;28;20225;-77
2021/03/09 03:20:11;;;;;;;7.50;4.20;;;-1.10;1.00;;;;;;4945294;28;20217;-77
2021/03/09 03:22:39;;;;;;;8.30;5.40;;;-1.10;1.00;;;;;;4948013;28;20658;-77
2021/03/09 03:25:07;;;;;;;9.40;5.95;;;-1.10;1.00;;;;;;4937515;28;21134;-77
2021/03/09 03:27:35;;;;;;;7.03;5.20;;;-1.10;1.00;;;;;;4945443;28;20227;-76
2021/03/09 03:30:01;;;;;;;9.82;5.30;;;-1.10;1.00;;;;;;4943622;28;20221;-76
2021/03/09 03:32:28;;;;;;;11.32;4.97;;;-1.10;1.00;;;;;;4942177;28;20232;-76
2021/03/09 03:34:55;;;;;;;11.57;5.18;;;-1.00;1.00;;;;;;4927844;28;20326;-77
2021/03/09 03:37:21;;;;;;;8.40;4.88;;;-1.10;1.00;;;;;;4943367;28;20242;-76
2021/03/09 03:39:49;;;;;;;5.82;4.88;;;-1.10;1.00;;;;;;4944948;28;20303;-76
2021/03/09 03:42:17;;;;;;;7.55;5.15;;;-1.10;1.00;;;;;;4942191;28;20272;-76
2021/03/09 03:44:43;;;;;;;5.50;4.15;;;-1.10;1.00;;;;;;4941504;28;20312;-76
2021/03/09 03:47:09;;;;;;;9.73;4.60;;;-1.10;1.00;;;;;;4939148;28;20229;-76
2021/03/09 03:49:36;;;;;;;8.60;5.10;;;-1.10;1.00;;;;;;4940875;28;20272;-77
2021/03/09 03:52:10;;;;;;;7.38;4.88;;;-1.10;1.00;;;;;;4943628;28;20675;-76
2021/03/09 03:54:44;;;;;;;7.47;5.68;;;-1.10;1.00;;;;;;4943145;28;20224;-77
2021/03/09 03:57:18;;;;;;;9.30;5.68;;;-1.20;1.00;;;;;;4939114;28;20320;-77
2021/03/09 03:59:47;;;;;;;6.53;4.22;;;-1.20;1.00;;;;;;4939366;28;20228;-77
2021/03/09 04:02:15;;;;;;;5.47;4.35;;;-1.20;1.00;;;;;;4942115;28;20229;-76
2021/03/09 04:04:45;;;;;;;9.18;4.85;;;-1.20;1.00;;;;;;4934886;28;21083;-77
2021/03/09 04:07:11;;;;;;;6.15;5.35;;;-1.20;1.00;;;;;;4941607;28;20220;-77
2021/03/09 04:09:37;;;;;;;4.88;4.30;;;-1.20;1.00;;;;;;4940377;28;20229;-77
2021/03/09 04:12:07;;;;;;;9.15;5.43;;;-1.20;1.00;;;;;;4942523;28;20224;-77
2021/03/09 04:14:34;;;;;;;6.88;5.78;;;-1.20;1.00;;;;;;4940737;28;20325;-78
2021/03/09 04:17:03;;;;;;;8.35;4.80;;;-1.10;1.00;;;;;;4935594;28;21737;-76
2021/03/09 04:19:30;;;;;;;7.10;4.45;;;-1.10;1.00;;;;;;4938914;28;20794;-76
2021/03/09 04:21:58;;;;;;;6.32;5.43;;;-1.20;1.00;;;;;;4944262;28;20387;-76
2021/03/09 04:24:25;;;;;;;10.43;6.15;;;-1.20;1.00;;;;;;4948310;28;20224;-78
2021/03/09 04:26:52;;;;;;;6.20;4.85;;;-1.10;1.00;;;;;;4943273;28;20732;-78
2021/03/09 04:29:19;;;;;;;7.65;4.70;;;-1.10;1.00;;;;;;4949963;28;20884;-76
2021/03/09 04:31:46;;;;;;;5.70;4.50;;;-1.10;1.00;;;;;;4928907;28;20235;-76
2021/03/09 04:34:13;;;;;;;9.23;5.05;;;-1.10;1.00;;;;;;4945364;28;20881;-76
2021/03/09 04:36:40;;;;;;;10.70;5.88;;;-1.10;1.00;;;;;;4944322;28;20394;-77
2021/03/09 04:39:07;;;;;;;10.60;4.85;;;-1.10;1.00;;;;;;4945624;28;20320;-77
2021/03/09 04:41:34;;;;;;;7.30;5.22;;;-1.10;1.00;;;;;;4943823;28;20289;-76
2021/03/09 04:44:00;;;;;;;8.10;5.22;;;-1.10;1.00;;;;;;4949848;28;20225;-76
2021/03/09 04:46:27;;;;;;;8.52;5.22;;;-1.10;1.00;;;;;;4925053;28;20244;-77
2021/03/09 04:48:55;;;;;;;5.57;4.80;;;-1.10;1.00;;;;;;4933855;28;20232;-77
2021/03/09 04:51:22;;;;;;;6.00;4.90;;;-1.10;1.00;;;;;;4941079;28;20825;-77
2021/03/09 04:53:49;;;;;;;7.28;4.28;;;-1.10;1.00;;;;;;4945885;28;20242;-77
2021/03/09 04:56:15;;;;;;;5.00;4.43;;;-1.10;1.00;;;;;;4944891;28;20236;-77
2021/03/09 04:58:42;;;;;;;10.98;6.00;;;-1.10;1.00;;;;;;4943635;28;20259;-78
2021/03/09 05:01:08;;;;;;;7.53;5.05;;;-1.10;1.00;;;;;;4946998;28;20225;-76
2021/03/09 05:03:34;;;;;;;9.75;5.95;;;-1.20;1.00;;;;;;4944460;28;20221;-77
2021/03/09 05:06:02;;;;;;;6.30;5.30;;;-1.10;1.00;;;;;;4948574;28;20771;-76
2021/03/09 05:08:28;;;;;;;5.75;4.80;;;-1.10;1.00;;;;;;4940568;28;20255;-76
2021/03/09 05:10:55;;;;;;;7.47;5.43;;;-1.20;1.00;;;;;;4948311;28;20222;-76
2021/03/09 05:13:21;;;;;;;15.93;14.63;;;-1.20;1.00;;;;;;4944737;28;20274;-77
2021/03/09 05:15:48;;;;;;;8.10;5.35;;;-1.20;1.00;;;;;;4947350;28;20241;-78
2021/03/09 05:18:14;;;;;;;9.52;5.90;;;-1.20;1.00;;;;;;4951129;28;20285;-77
2021/03/09 05:20:41;;;;;;;8.60;5.57;;;-1.20;1.00;;;;;;4947222;28;20260;-76
2021/03/09 05:23:09;;;;;;;7.18;5.25;;;-1.20;1.00;;;;;;4945770;28;20228;-76
2021/03/09 05:25:35;;;;;;;10.73;6.15;;;-1.20;1.00;;;;;;4941514;28;20249;-77
2021/03/09 05:28:01;;;;;;;7.03;4.28;;;-1.10;1.00;;;;;;4946385;28;20221;-77
2021/03/09 05:30:28;;;;;;;8.07;6.05;;;-1.20;1.00;;;;;;4947918;28;20228;-77
2021/03/09 05:32:56;;;;;;;10.48;5.75;;;-1.20;1.00;;;;;;4947739;28;20276;-77
2021/03/09 05:35:22;;;;;;;6.85;5.25;;;-1.20;1.00;;;;;;4945787;28;20245;-77
2021/03/09 05:37:48;;;;;;;8.85;6.13;;;-1.20;1.00;;;;;;4948675;28;20217;-77
2021/03/09 05:40:17;;;;;;;7.13;5.00;;;-1.20;1.00;;;;;;4946982;28;20240;-76
2021/03/09 05:42:49;;;;;;;11.15;5.20;;;-1.10;1.00;;;;;;4946860;28;20229;-76
2021/03/09 05:45:16;;;;;;;9.20;4.90;;;-1.10;1.00;;;;;;4946045;28;21051;-76
2021/03/09 05:47:43;;;;;;;9.10;6.22;;;-1.20;1.00;;;;;;4959692;28;20228;-77
2021/03/09 05:50:11;;;;;;;7.50;4.45;;;-1.10;1.00;;;;;;4948086;28;20236;-77
2021/03/09 05:52:38;;;;;;;6.95;4.68;;;-1.10;1.00;;;;;;4943826;28;20229;-77
2021/03/09 05:55:06;;;;;;;11.25;6.10;;;-1.20;1.00;;;;;;4927063;28;20966;-76
2021/03/09 05:57:33;;;;;;;6.88;4.53;;;-1.10;1.00;;;;;;4948052;28;20225;-76
2021/03/09 06:00:00;;;;;;;7.00;5.63;;;-1.20;1.00;;;;;;4948872;28;20232;-77
2021/03/09 06:02:26;;;;;;;12.15;5.82;;;-1.20;1.00;;;;;;4944037;28;20267;-76
2021/03/09 06:04:52;;;;;;;7.05;5.15;;;-1.20;1.00;;;;;;4949147;28;20257;-78
2021/03/09 06:07:19;;;;;;;9.68;5.40;;;-1.10;1.00;;;;;;4945913;28;20233;-76
2021/03/09 06:09:46;;;;;;;8.10;5.40;;;-1.10;1.00;;;;;;4939229;28;20319;-78
2021/03/09 06:12:17;;;;;;;8.63;5.25;;;-1.10;1.00;;;;;;4942522;28;20319;-77
2021/03/09 06:14:46;;;;;;;7.55;5.28;;;-1.10;1.00;;;;;;4949273;28;20236;-77
2021/03/09 06:17:14;;;;;;;8.85;7.53;;;-1.10;1.00;;;;;;4952539;28;20237;-77
2021/03/09 06:19:42;;;;;;;10.88;6.65;;;-1.10;1.00;;;;;;4952241;28;20273;-77
2021/03/09 06:22:09;;;;;;;20.42;12.00;;;-1.00;1.00;;;;;;4930793;28;20233;-77
2021/03/09 06:24:36;;;;;;;9.13;5.97;;;-1.00;1.00;;;;;;4947296;28;20748;-77
2021/03/09 06:27:03;;;;;;;11.52;6.07;;;-1.00;1.00;;;;;;4949846;28;20292;-76
2021/03/09 06:29:29;;;;;;;8.23;5.15;;;-0.90;1.00;;;;;;4948856;28;20312;-77
2021/03/09 06:32:04;;;;;;;8.32;5.85;;;-0.90;1.00;;;;;;4944411;28;21331;-83
2021/03/09 06:34:32;;;;;;;7.68;5.35;;;-0.90;1.00;;;;;;4958687;28;20233;-84
2021/03/09 06:37:05;;;;;;;9.70;6.22;;;-0.90;1.00;;;;;;4942608;28;20260;-85
2021/03/09 06:39:56;;;;;;;6.88;5.45;;;-0.90;1.00;;;;;;4950035;28;20303;-83
2021/03/09 06:42:25;;;;;;;9.52;5.78;;;-0.60;1.00;;;;;;4937727;28;20236;-81
2021/03/09 06:44:55;;;;;;;7.50;5.38;;;-0.60;1.00;;;;;;4950337;28;20237;-81
2021/03/09 06:47:39;;;;;;;9.60;6.90;;;-0.50;1.00;;;;;;4953296;28;20224;-83
2021/03/09 06:50:09;;;;;;;11.13;6.50;;;-0.50;1.00;;;;;;4960837;28;20231;-82
2021/03/09 06:52:38;;;;;;;9.15;6.13;;;-0.40;1.00;;;;;;4959891;28;20221;-83
2021/03/09 06:55:07;;;;;;;10.13;6.60;;;-0.30;1.00;;;;;;4962304;28;20236;-83
2021/03/09 06:57:34;;;;;;;7.25;6.10;;;-0.20;1.00;;;;;;4958216;28;20248;-81
2021/03/09 07:00:01;;;;;;;10.65;6.40;;;-0.10;1.00;;;;;;4954873;28;20229;-83
2021/03/09 07:02:28;;;;;;;6.95;5.13;;;-0.10;1.00;;;;;;4951084;28;20261;-82
2021/03/09 07:05:03;;;;;;;9.38;6.50;;;0.10;1.00;;;;;;4949704;28;20229;-81
2021/03/09 07:07:31;;;;;;;10.10;6.53;;;0.20;1.00;;;;;;4953811;28;20888;-81
2021/03/09 07:10:01;;;;;;;10.48;5.80;;;0.30;1.00;;;;;;4953816;28;20232;-82
2021/03/09 07:12:28;;;;;;;12.57;6.97;;;0.30;1.00;;;;;;4944170;28;20252;-81
2021/03/09 07:14:57;;;;;;;9.77;5.70;;;0.40;1.00;;;;;;4950370;28;20233;-79
2021/03/09 07:17:25;;;;;;;8.13;6.18;;;0.50;1.00;;;;;;4938512;28;20258;-80
2021/03/09 07:19:52;;;;;;;8.00;7.10;;;0.60;1.00;;;;;;4956276;28;20247;-79
2021/03/09 07:22:21;;;;;;;10.25;6.47;;;0.60;1.00;;;;;;4955897;28;20228;-81
2021/03/09 07:25:01;;;;;;;12.48;8.20;;;0.90;1.00;;;;;;4955007;28;20309;-81
2021/03/09 07:27:37;;;;;;;9.13;6.45;;;0.90;1.00;;;;;;4953222;28;20236;-79
2021/03/09 07:30:05;;;;;;;7.65;6.10;;;0.90;1.00;;;;;;4956863;28;20329;-79
2021/03/09 07:32:32;;;;;;;10.85;7.38;;;1.00;1.00;;;;;;4955385;28;20237;-82
2021/03/09 07:34:59;;;;;;;12.43;6.90;;;1.00;1.00;;;;;;4960269;28;20215;-81
2021/03/09 07:37:28;;;;;;;12.98;8.35;;;1.00;1.00;;;;;;4956106;28;20221;-80
2021/03/09 07:39:56;;;;;;;10.52;7.15;;;1.10;1.00;;;;;;4938298;28;20233;-81
2021/03/09 07:42:23;;;;;;;13.27;6.90;;;1.20;1.00;;;;;;4950665;28;20229;-80
2021/03/09 07:44:49;;;;;;;9.10;6.63;;;1.30;1.00;;;;;;4951758;28;20228;-82
2021/03/09 07:47:18;;;;;;;13.23;7.20;;;1.40;1.00;;;;;;4946520;28;20251;-79
2021/03/09 07:49:46;;;;;;;14.05;7.07;;;1.50;1.00;;;;;;4955712;28;20241;-80
2021/03/09 07:52:15;;;;;;;8.57;6.20;;;1.60;1.00;;;;;;4939729;28;20232;-80
2021/03/09 07:55:27;;;;;;;8.68;6.40;;;1.60;1.00;;;;;;4955434;28;20229;-82
2021/03/09 07:58:16;;;;;;;10.38;6.65;;;1.70;1.00;;;;;;4950129;28;20233;-80
2021/03/09 08:00:51;;;;;;;10.23;7.10;;;1.80;1.00;;;;;;4954714;28;21104;-83
2021/03/09 08:03:19;;;;;;;9.23;6.80;;;1.90;1.00;;;;;;4943843;28;20228;-85
2021/03/09 08:05:50;;;;;;;10.80;8.20;;;1.90;1.00;;;;;;4954440;28;20245;-80
2021/03/09 08:08:36;;;;;;;14.15;9.60;;;2.00;1.00;;;;;;4950680;28;20225;-82
2021/03/09 08:11:02;;;;;;;10.18;6.95;;;2.10;1.00;;;;;;4948225;28;20249;-79
2021/03/09 08:13:30;;;;;;;11.05;7.18;;;2.20;1.00;;;;;;4950463;28;20790;-82
2021/03/09 08:16:31;;;;;;;11.13;6.43;;;2.20;1.00;;;;;;4973157;23;20224;-81
2021/03/09 08:19:02;;;;;;;11.07;7.15;;;2.40;1.00;;;;;;4939945;28;20232;-80
2021/03/09 08:21:51;;;;;;;11.00;6.60;;;2.70;1.00;;;;;;4957369;28;20224;-78
2021/03/09 08:24:18;;;;;;;12.85;8.20;;;2.90;1.00;;;;;;4948309;28;20289;-80
2021/03/09 08:26:51;;;;;;;9.77;6.82;;;3.00;1.00;;;;;;4949840;28;20248;-80
2021/03/09 08:29:41;;;;;;;12.55;7.60;;;3.00;1.00;;;;;;4949577;28;20257;-80
2021/03/09 08:32:38;;;;;;;8.70;7.20;;;3.10;1.00;;;;;;4934463;28;20457;-81
2021/03/09 08:35:37;;;;;;;11.05;7.03;;;3.30;1.00;;;;;;4949532;28;20251;-81
2021/03/09 08:38:15;;;;;;;15.30;7.45;;;3.50;1.00;;;;;;4948453;28;20253;-82
2021/03/09 08:41:08;;;;;;;10.32;6.22;;;3.60;1.00;;;;;;4927092;28;20222;-81
2021/03/09 08:43:35;;;;;;;12.50;7.82;;;3.70;1.00;;;;;;4949953;28;20370;-80
2021/03/09 08:46:04;;;;;;;9.88;8.35;;;3.80;1.00;;;;;;4951032;28;20281;-79
2021/03/09 08:48:54;;;;;;;14.27;8.60;;;4.00;1.00;;;;;;4933138;28;20219;-80
2021/03/09 08:51:48;;;;;;;10.73;7.32;;;4.20;1.00;;;;;;4944035;28;20221;-76
2021/03/09 08:54:26;;;;;;;8.05;7.18;;;4.50;1.00;;;;;;4940867;28;20321;-76
2021/03/09 08:56:53;;;;;;;8.88;7.88;;;4.70;1.00;;;;;;4949450;28;20297;-75
2021/03/09 08:59:25;;;;;;;10.60;7.43;;;5.00;1.00;;;;;;4935604;28;20369;-76
2021/03/09 09:01:53;;;;;;;10.48;6.78;;;5.30;1.00;;;;;;4942148;28;20225;-76
2021/03/09 09:04:19;;;;;;;8.35;6.70;;;5.70;1.00;;;;;;4946094;28;21025;-77
2021/03/09 09:06:47;;;;;;;10.10;8.07;;;6.50;1.00;;;;;;4941037;28;20260;-77
2021/03/09 09:09:28;;;;;;;9.93;7.85;;;7.70;1.00;;;;;;4932082;28;21352;-78
2021/03/09 09:11:54;;;;;;;9.82;7.00;;;8.70;1.00;;;;;;4948602;28;20256;-79
2021/03/09 09:14:20;;;;;;;12.15;6.75;;;9.90;1.00;;;;;;4930431;28;20235;-81
2021/03/09 09:16:47;;;;;;;12.07;7.10;;;10.00;1.00;;;;;;4946992;28;20261;-78
2021/03/09 09:19:14;;;;;;;11.13;7.40;;;10.10;1.00;;;;;;4951211;28;20229;-79
2021/03/09 09:21:49;;;;;;;9.13;7.00;;;10.50;1.00;;;;;;4951026;28;20326;-76
2021/03/09 09:24:20;;;;;;;12.40;7.93;;;11.00;1.00;;;;;;4946898;28;20463;-77
2021/03/09 09:26:58;;;;;;;9.73;7.00;;;11.60;1.00;;;;;;4947614;28;20447;-79
2021/03/09 09:29:24;;;;;;;13.50;6.43;;;12.00;1.00;;;;;;4946218;28;20413;-79
2021/03/09 09:31:59;;;;;;;11.57;8.53;;;12.60;1.00;;;;;;4947599;28;20436;-77
2021/03/09 09:34:34;;;;;;;14.73;6.90;;;12.70;1.00;;;;;;4956238;28;20429;-77
2021/03/09 09:37:12;;;;;;;11.30;6.60;;;13.00;1.00;;;;;;4956434;28;20469;-77
2021/03/09 09:39:38;;;;;;;6.77;5.53;;;13.10;1.00;;;;;;4949498;28;20465;-78
2021/03/09 09:42:13;;;;;;;12.57;5.60;;;13.10;1.00;;;;;;4951683;28;20493;-78
2021/03/09 09:44:39;;;;;;;8.50;5.83;;;13.60;1.00;;;;;;4945875;28;20493;-77
2021/03/09 09:47:06;;;;;;;7.73;5.53;;;13.30;1.00;;;;;;4945756;28;20430;-77
2021/03/09 09:49:33;;;;;;;9.17;6.53;;;13.50;1.00;;;;;;4949132;28;20461;-78
2021/03/09 09:52:00;;;;;;;6.30;4.93;;;13.50;1.00;;;;;;4947664;28;20472;-77
2021/03/09 09:54:26;;;;;;;6.50;4.93;;;13.40;1.00;;;;;;4948613;28;20438;-78
2021/03/09 09:56:52;;;;;;;13.03;6.00;;;13.80;1.00;;;;;;4948763;28;20552;-78
2021/03/09 09:59:26;;;;;;;5.57;5.03;;;14.60;1.00;;;;;;4943721;28;21513;-77
2021/03/09 10:01:52;;;;;;;5.30;4.23;;;14.50;1.00;;;;;;4937364;28;20477;-77
2021/03/09 10:04:18;;;;;;;6.10;4.97;;;14.70;1.00;;;;;;4951450;28;21033;-85
2021/03/09 10:06:47;;;;;;;6.23;4.87;;;15.50;1.00;;;;;;4959069;28;20426;-79
2021/03/09 10:09:17;;;;;;;9.30;5.27;;;16.00;1.00;;;;;;4949895;28;20406;-81
2021/03/09 10:11:48;;;;;;;5.17;3.63;;;16.20;1.00;;;;;;4955168;28;21168;-79
2021/03/09 10:14:15;;;;;;;7.40;5.43;;;16.70;1.00;;;;;;4947336;28;20421;-79
2021/03/09 10:16:43;;;;;;;7.40;5.13;;;17.00;1.00;;;;;;4947560;28;21862;-81
2021/03/09 10:19:10;;;;;;;10.43;5.90;;;16.60;1.00;;;;;;4947014;28;20471;-78
2021/03/09 10:21:37;;;;;;;9.50;5.13;;;16.50;1.00;;;;;;4942317;28;20590;-81
2021/03/09 10:24:06;;;;;;;11.03;6.40;;;16.90;1.00;;;;;;4947824;28;21297;-80
2021/03/09 10:26:34;;;;;;;11.87;5.80;;;17.50;1.00;;;;;;4946273;28;21976;-79
2021/03/09 10:29:04;;;;;;;6.33;5.33;;;17.80;1.00;;;;;;4943237;28;20476;-81
2021/03/09 10:31:40;;;;;;;11.40;6.93;;;17.70;1.00;;;;;;4943540;28;21280;-80
2021/03/09 10:34:06;;;;;;;9.30;5.90;;;17.90;1.00;;;;;;4948683;28;20979;-80
2021/03/09 10:36:53;;;;;;;7.07;5.30;;;18.40;1.00;;;;;;4945157;28;20505;-80
2021/03/09 10:39:22;;;;;;;6.20;4.27;;;19.80;1.00;;;;;;4948150;28;20431;-80
2021/03/09 10:41:48;;;;;;;4.70;3.83;;;20.50;1.00;;;;;;4950930;28;20445;-79
2021/03/09 10:44:31;;;;;;;11.43;5.80;;;20.40;1.00;;;;;;4953745;28;20486;-79
2021/03/09 10:46:59;;;;;;;4.33;3.30;;;20.50;1.00;;;;;;4950591;28;20490;-81
2021/03/09 10:49:25;;;;;;;6.13;2.97;;;20.50;1.00;;;;;;4958359;28;20459;-80
2021/03/09 10:52:03;;;;;;;5.13;3.70;;;20.80;1.00;;;;;;4949579;28;20534;-78
2021/03/09 10:54:30;;;;;;;4.63;3.97;;;20.70;1.00;;;;;;4946121;28;20476;-79
2021/03/09 10:56:56;;;;;;;4.20;3.07;;;20.50;1.00;;;;;;4946280;28;20481;-79
2021/03/09 10:59:23;;;;;;;6.43;3.53;;;21.20;1.00;;;;;;4946265;28;20486;-78
2021/03/09 11:01:49;;;;;;;5.93;3.57;;;21.70;1.00;;;;;;4949938;28;20475;-79
2021/03/09 11:04:16;;;;;;;4.67;3.90;;;21.80;1.00;;;;;;4943109;28;20439;-78
2021/03/09 11:06:42;;;;;;;7.80;3.47;;;20.90;1.00;;;;;;4943102;28;20497;-78
2021/03/09 11:09:08;;;;;;;9.70;4.47;;;20.20;1.00;;;;;;4942586;28;20446;-79
2021/03/09 11:11:35;;;;;;;4.27;3.40;;;20.00;1.00;;;;;;4947443;28;21130;-79
2021/03/09 11:14:02;;;;;;;5.77;3.33;;;19.70;1.00;;;;;;4943087;28;21012;-78
2021/03/09 11:16:30;;;;;;;4.27;3.40;;;19.30;1.00;;;;;;4941184;28;20429;-78
2021/03/09 11:18:56;;;;;;;7.83;3.47;;;19.30;1.00;;;;;;4948874;28;20958;-78
2021/03/09 11:21:22;;;;;;;3.90;2.50;;;19.50;1.00;;;;;;4940331;28;20510;-78
2021/03/09 11:23:51;;;;;;;3.23;2.93;;;18.90;1.00;;;;;;4941508;28;20483;-78
2021/03/09 11:26:18;;;;;;;7.23;4.40;;;18.30;1.00;;;;;;4943209;28;20472;-77
2021/03/09 11:28:46;;;;;;;3.67;2.63;;;18.00;1.00;;;;;;4944148;28;20988;-77
2021/03/09 11:31:12;;;;;;;2.80;2.30;;;17.60;1.00;;;;;;4945005;28;20468;-79
2021/03/09 11:33:39;;;;;;;3.20;2.47;;;17.50;1.00;;;;;;4939661;28;20512;-79
2021/03/09 11:36:06;;;;;;;4.17;3.37;;;17.90;1.00;;;;;;4952997;28;20531;-79
2021/03/09 11:38:32;;;;;;;3.80;3.47;;;17.40;1.00;;;;;;4964136;28;20446;-78
2021/03/09 11:40:59;;;;;;;2.93;2.40;;;17.10;1.00;;;;;;4962422;28;20410;-80
2021/03/09 11:43:25;;;;;;;2.77;2.47;;;15.30;1.00;;;;;;4961699;28;20427;-78
2021/03/09 11:45:52;;;;;;;5.87;2.70;;;15.30;1.00;;;;;;4945097;28;20474;-78
2021/03/09 11:48:18;;;;;;;6.00;2.90;;;16.30;1.00;;;;;;4961191;28;20956;-81
2021/03/09 11:50:44;;;;;;;2.97;2.30;;;17.00;1.00;;;;;;4964614;28;20456;-81
2021/03/09 11:53:11;;;;;;;2.80;2.60;;;17.70;1.00;;;;;;4943589;28;20498;-79
2021/03/09 11:55:37;;;;;;;13.10;6.47;;;17.90;1.00;;;;;;4964531;28;20516;-79
2021/03/09 11:58:03;;;;;;;2.73;2.53;;;18.00;1.00;;;;;;4969201;28;20420;-79
2021/03/09 12:00:29;;;;;;;2.43;2.23;;;18.20;1.00;;;;;;4965626;28;20432;-78
2021/03/09 12:02:56;;;;;;;2.67;2.43;;;18.30;1.00;;;;;;4966453;28;20416;-81
2021/03/09 12:05:23;;;;;;;10.80;3.53;;;18.60;1.00;;;;;;4960907;28;20413;-80
2021/03/09 12:07:49;;;;;;;2.77;2.40;;;18.70;1.00;;;;;;4966104;28;20485;-79
2021/03/09 12:10:16;;;;;;;7.90;2.80;;;17.60;1.00;;;;;;4960199;28;20963;-82
2021/03/09 12:12:45;;;;;;;4.03;2.47;;;16.50;1.00;;;;;;4962075;28;20539;-80
2021/03/09 12:15:12;;;;;;;4.20;3.00;;;15.40;1.00;;;;;;4962946;28;20437;-83
2021/03/09 12:17:39;;;;;;;3.27;2.17;;;15.50;1.00;;;;;;4965360;28;20512;-79
2021/03/09 12:20:08;;;;;;;7.73;2.70;;;15.80;1.00;;;;;;4954515;28;21207;-79
2021/03/09 12:22:35;;;;;;;3.43;2.23;;;16.90;1.00;;;;;;4940267;28;20426;-78
2021/03/09 12:25:01;;;;;;;3.80;2.63;;;17.40;1.00;;;;;;4954649;28;20536;-78
2021/03/09 12:27:27;;;;;;;3.60;2.63;;;18.20;1.00;;;;;;4961001;28;20452;-78
2021/03/09 12:29:53;;;;;;;3.47;2.40;;;19.90;1.00;;;;;;4958245;28;20496;-78
2021/03/09 12:32:20;;;;;;;2.70;2.30;;;21.20;1.00;;;;;;4956240;28;20467;-79
2021/03/09 12:34:46;;;;;;;5.20;2.60;;;21.70;1.00;;;;;;4957468;28;20960;-78
2021/03/09 12:37:13;;;;;;;4.17;2.97;;;21.20;1.00;;;;;;4954766;28;20536;-78
2021/03/09 12:39:39;;;;;;;3.53;2.43;;;21.00;1.00;;;;;;4954285;28;20482;-79
2021/03/09 12:42:06;;;;;;;7.90;3.47;;;19.70;1.00;;;;;;4953949;28;20457;-79
2021/03/09 12:44:32;;;;;;;4.37;2.90;;;18.90;1.00;;;;;;4952988;28;20496;-78
2021/03/09 12:46:58;;;;;;;4.40;2.80;;;18.10;1.00;;;;;;4950543;28;21161;-77
2021/03/09 12:49:24;;;;;;;4.33;2.53;;;17.10;1.00;;;;;;4944935;28;20488;-77
2021/03/09 12:51:51;;;;;;;3.67;2.77;;;16.50;1.00;;;;;;4928925;28;20630;-75
2021/03/09 12:54:18;;;;;;;4.70;3.10;;;16.80;1.00;;;;;;4942765;28;20468;-75
2021/03/09 12:56:44;;;;;;;4.13;2.87;;;16.30;1.00;;;;;;4941112;28;20438;-77
2021/03/09 12:59:10;;;;;;;3.80;2.70;;;15.40;1.00;;;;;;4942967;28;20512;-79
2021/03/09 13:01:36;;;;;;;5.60;3.07;;;14.70;1.00;;;;;;4937909;28;20466;-78
2021/03/09 13:04:02;;;;;;;4.73;3.27;;;13.90;1.00;;;;;;4923854;28;20460;-75
2021/03/09 13:06:29;;;;;;;4.33;3.40;;;14.00;1.00;;;;;;4938574;28;20508;-75